Time;durP1;ratioP1;P1;durP2;ratioP2;P2;SDS_P1;SDS_P2;PMS_P1;PMS_P2;Temp;Humidity;BMP_temperature;BMP_pressure;BME280_temperature;BME280_humidity;BME280_pressure;Samples;Min_cycle;Max_cycle;Signal;HPM_P1;HPM_P2
2021/10/15 00:00:19;;;;;;;8.87;7.97;;;;;;;4.38;100.00;98515.97;4940275;28;20218;-71
2021/10/15 00:02:47;;;;;;;9.57;8.67;;;;;;;4.34;100.00;98509.25;4973639;28;20206;-71
2021/10/15 00:05:15;;;;;;;8.43;7.73;;;;;;;4.30;100.00;98510.44;4921466;28;20304;-70
2021/10/15 00:07:44;;;;;;;9.93;8.93;;;;;;;4.26;100.00;98512.44;4975817;28;20753;-70
2021/10/15 00:10:12;;;;;;;9.73;8.83;;;;;;;4.24;100.00;98506.47;4971253;28;20889;-70
2021/10/15 00:12:40;;;;;;;10.07;9.07;;;;;;;4.30;100.00;98508.63;4964263;28;20210;-71
2021/10/15 00:15:08;;;;;;;10.43;9.57;;;;;;;4.29;100.00;98506.97;4972702;28;20248;-69
2021/10/15 00:17:38;;;;;;;10.07;9.10;;;;;;;4.31;100.00;98497.19;4969705;28;20206;-71
2021/10/15 00:20:07;;;;;;;11.33;9.50;;;;;;;4.23;100.00;98502.16;4938553;28;20533;-70
2021/10/15 00:22:35;;;;;;;11.37;10.37;;;;;;;4.19;100.00;98496.31;4975057;28;20205;-71
2021/10/15 00:25:04;;;;;;;8.83;7.90;;;;;;;4.24;100.00;98498.59;4969441;28;20241;-71
2021/10/15 00:27:32;;;;;;;9.70;8.80;;;;;;;4.15;100.00;98494.00;4963112;28;20245;-70
2021/10/15 00:30:00;;;;;;;9.37;8.47;;;;;;;4.11;100.00;98487.31;4974670;28;20735;-70
2021/10/15 00:32:28;;;;;;;9.93;9.03;;;;;;;4.07;100.00;98488.50;4971816;28;20988;-70
2021/10/15 00:34:58;;;;;;;9.33;8.43;;;;;;;4.01;100.00;98484.50;4940300;28;20225;-71
2021/10/15 00:37:26;;;;;;;8.47;7.67;;;;;;;3.99;100.00;98489.03;4972125;28;20410;-71
2021/10/15 00:39:54;;;;;;;9.60;8.70;;;;;;;3.94;100.00;98488.53;4974336;28;20220;-71
2021/10/15 00:42:22;;;;;;;9.37;8.57;;;;;;;3.87;100.00;98480.25;4958842;28;20610;-70
2021/10/15 00:44:50;;;;;;;9.47;8.57;;;;;;;3.91;100.00;98469.44;4972934;28;20859;-70
2021/10/15 00:47:18;;;;;;;9.33;8.47;;;;;;;3.91;100.00;98468.59;4969736;28;20241;-71
2021/10/15 00:49:46;;;;;;;9.27;8.47;;;;;;;3.85;100.00;98466.41;4941611;28;20321;-70
2021/10/15 00:52:16;;;;;;;9.13;8.23;;;;;;;3.82;100.00;98466.63;4969080;28;20210;-70
2021/10/15 00:54:44;;;;;;;9.60;8.17;;;;;;;3.76;100.00;98465.28;4970559;28;20433;-71
2021/10/15 00:57:13;;;;;;;9.47;8.53;;;;;;;3.73;100.00;98468.13;4972549;28;20213;-70
2021/10/15 00:59:41;;;;;;;8.20;7.50;;;;;;;3.68;100.00;98462.38;4961935;28;20206;-69
2021/10/15 01:02:09;;;;;;;11.27;8.70;;;;;;;3.66;100.00;98462.50;4972641;28;20206;-70
2021/10/15 01:04:38;;;;;;;8.73;7.93;;;;;;;3.62;100.00;98445.31;4933105;28;20257;-70
2021/10/15 01:07:06;;;;;;;9.00;8.13;;;;;;;3.66;100.00;98440.69;4970968;28;20222;-69
2021/10/15 01:09:37;;;;;;;8.90;8.03;;;;;;;3.60;100.00;98440.16;4968130;28;20674;-70
2021/10/15 01:12:06;;;;;;;8.37;7.73;;;;;;;3.63;100.00;98441.75;4970936;28;20216;-70
2021/10/15 01:14:35;;;;;;;8.07;7.37;;;;;;;3.65;100.00;98437.22;4962936;28;20272;-71
2021/10/15 01:17:03;;;;;;;9.10;8.30;;;;;;;3.69;100.00;98432.59;4957821;28;20429;-70
2021/10/15 01:19:32;;;;;;;9.63;8.73;;;;;;;3.62;100.00;98432.22;4967895;28;20466;-70
2021/10/15 01:22:03;;;;;;;9.50;8.60;;;;;;;3.59;100.00;98424.53;4934792;28;20788;-70
2021/10/15 01:24:32;;;;;;;8.83;7.90;;;;;;;3.61;100.00;98420.88;4969664;28;20618;-70
2021/10/15 01:27:04;;;;;;;9.53;8.63;;;;;;;3.65;100.00;98420.66;4971922;28;20236;-69
2021/10/15 01:29:32;;;;;;;9.00;8.10;;;;;;;3.64;100.00;98418.97;4963610;28;20214;-70
2021/10/15 01:32:00;;;;;;;9.30;7.83;;;;;;;3.60;100.00;98402.66;4971928;28;20218;-69
2021/10/15 01:34:29;;;;;;;9.30;8.40;;;;;;;3.71;100.00;98415.81;4969486;28;20290;-70
2021/10/15 01:36:57;;;;;;;9.27;8.47;;;;;;;3.74;100.00;98402.50;4938779;28;20222;-69
2021/10/15 01:39:26;;;;;;;10.67;9.57;;;;;;;3.69;100.00;98402.00;4967005;28;20756;-71
2021/10/15 01:41:54;;;;;;;9.33;8.37;;;;;;;3.76;100.00;98404.97;4973249;28;20209;-70
2021/10/15 01:44:22;;;;;;;10.43;9.27;;;;;;;3.67;100.00;98406.50;4970593;28;20435;-70
2021/10/15 01:46:51;;;;;;;9.20;8.00;;;;;;;3.71;100.00;98407.94;4963459;28;20643;-71
2021/10/15 01:49:19;;;;;;;9.13;8.27;;;;;;;3.66;100.00;98398.72;4968088;28;20532;-71
2021/10/15 01:51:47;;;;;;;9.73;8.73;;;;;;;3.55;100.00;98402.13;4937085;28;20229;-71
2021/10/15 01:54:15;;;;;;;9.13;8.23;;;;;;;3.54;100.00;98401.28;4966365;28;20257;-71
2021/10/15 01:56:45;;;;;;;9.17;8.17;;;;;;;3.51;100.00;98405.91;4975538;28;20718;-71
2021/10/15 01:59:13;;;;;;;8.43;7.73;;;;;;;3.45;100.00;98401.97;4967253;28;20202;-71
2021/10/15 02:01:41;;;;;;;8.80;7.90;;;;;;;3.40;100.00;98399.66;4961790;28;20217;-71
2021/10/15 02:04:09;;;;;;;7.80;7.10;;;;;;;3.39;100.00;98387.50;4967088;28;20730;-70
2021/10/15 02:06:37;;;;;;;7.90;7.20;;;;;;;3.37;100.00;98386.78;4937456;28;20491;-71
2021/10/15 02:09:05;;;;;;;9.03;8.17;;;;;;;3.37;100.00;98378.06;4968692;28;20586;-69
2021/10/15 02:11:34;;;;;;;8.80;7.63;;;;;;;3.41;100.00;98377.75;4978494;28;20206;-71
2021/10/15 02:14:03;;;;;;;8.77;7.97;;;;;;;3.30;100.00;98373.25;4933478;28;20229;-69
2021/10/15 02:16:31;;;;;;;8.70;7.40;;;;;;;3.33;100.00;98372.22;4976079;28;20202;-71
2021/10/15 02:18:59;;;;;;;8.50;7.63;;;;;;;3.33;100.00;98369.59;4975707;28;20570;-70
2021/10/15 02:21:27;;;;;;;7.70;7.03;;;;;;;3.34;100.00;98368.66;4976124;28;21019;-71
2021/10/15 02:23:55;;;;;;;8.80;7.93;;;;;;;3.44;100.00;98355.75;4975525;28;20705;-70
2021/10/15 02:26:23;;;;;;;8.93;8.03;;;;;;;3.38;100.00;98359.63;4975104;28;20747;-71
2021/10/15 02:28:51;;;;;;;9.27;8.47;;;;;;;3.37;100.00;98352.72;4941717;28;20217;-70
2021/10/15 02:31:21;;;;;;;9.10;8.20;;;;;;;3.45;100.00;98350.38;4972272;28;20495;-71
2021/10/15 02:33:50;;;;;;;8.33;7.53;;;;;;;3.47;100.00;98351.09;4974862;28;20300;-71
2021/10/15 02:36:18;;;;;;;8.90;8.03;;;;;;;3.39;100.00;98342.97;4973551;28;20812;-71
2021/10/15 02:38:46;;;;;;;8.93;8.03;;;;;;;3.39;100.00;98336.88;4974460;28;20211;-72
2021/10/15 02:41:14;;;;;;;7.97;7.03;;;;;;;3.40;100.00;98336.75;4974075;28;20300;-72
2021/10/15 02:43:44;;;;;;;8.03;7.33;;;;;;;3.47;100.00;98332.75;4972705;28;20217;-72
2021/10/15 02:46:12;;;;;;;8.40;7.20;;;;;;;3.46;100.00;98325.84;4934786;28;20223;-74
2021/10/15 02:48:42;;;;;;;9.70;8.63;;;;;;;3.45;100.00;98326.78;4955084;28;20447;-72
2021/10/15 02:51:11;;;;;;;9.50;8.60;;;;;;;3.46;100.00;98325.03;4974253;28;20563;-74
2021/10/15 02:53:39;;;;;;;9.60;8.17;;;;;;;3.51;100.00;98319.44;4971547;28;20202;-73
2021/10/15 02:56:08;;;;;;;9.20;7.80;;;;;;;3.44;100.00;98322.50;4973016;28;20311;-72
2021/10/15 02:58:36;;;;;;;9.40;8.50;;;;;;;3.45;100.00;98318.94;4972077;28;20697;-69
2021/10/15 03:01:04;;;;;;;8.67;7.87;;;;;;;3.38;100.00;98312.47;4943726;28;20221;-72
2021/10/15 03:03:32;;;;;;;9.03;7.87;;;;;;;3.33;100.00;98315.41;4967867;28;20233;-70
2021/10/15 03:06:01;;;;;;;8.67;7.57;;;;;;;3.24;100.00;98312.63;4976366;28;20208;-72
2021/10/15 03:08:30;;;;;;;8.07;7.37;;;;;;;3.21;100.00;98307.56;4954304;28;20721;-70
2021/10/15 03:10:58;;;;;;;10.73;8.30;;;;;;;3.15;100.00;98309.69;4975241;28;20206;-71
2021/10/15 03:13:26;;;;;;;8.43;7.67;;;;;;;3.08;100.00;98312.88;4968883;28;20256;-70
2021/10/15 03:15:54;;;;;;;9.07;8.27;;;;;;;2.99;100.00;98306.50;4940789;28;20801;-72
2021/10/15 03:18:22;;;;;;;8.67;7.87;;;;;;;2.92;100.00;98303.47;4974257;28;21101;-70
2021/10/15 03:20:50;;;;;;;8.87;8.07;;;;;;;3.00;100.00;98305.56;4957777;28;20311;-71
2021/10/15 03:23:20;;;;;;;8.13;7.43;;;;;;;2.98;100.00;98312.69;4974460;28;20237;-70
2021/10/15 03:25:48;;;;;;;9.67;7.43;;;;;;;2.88;100.00;98307.25;4970710;28;20439;-69
2021/10/15 03:28:16;;;;;;;8.97;8.07;;;;;;;2.84;100.00;98309.25;4973076;28;20230;-71
2021/10/15 03:30:44;;;;;;;10.20;8.27;;;;;;;2.79;100.00;98311.34;4971173;28;20207;-72
2021/10/15 03:33:13;;;;;;;7.87;7.17;;;;;;;2.73;100.00;98310.00;4939020;28;20222;-70
2021/10/15 03:35:41;;;;;;;8.30;7.47;;;;;;;2.73;100.00;98311.78;4971347;28;20248;-72
2021/10/15 03:38:09;;;;;;;8.00;7.30;;;;;;;2.72;100.00;98310.09;4976397;28;20209;-72
2021/10/15 03:40:38;;;;;;;8.60;7.80;;;;;;;2.72;100.00;98316.19;4971910;28;20734;-71
2021/10/15 03:43:06;;;;;;;9.47;7.13;;;;;;;2.64;100.00;98313.22;4974963;28;20209;-72
2021/10/15 03:45:34;;;;;;;8.13;7.20;;;;;;;2.60;100.00;98314.38;4971090;28;20236;-70
2021/10/15 03:48:02;;;;;;;8.47;7.13;;;;;;;2.57;100.00;98310.22;4940921;28;20229;-71
2021/10/15 03:50:31;;;;;;;8.33;7.37;;;;;;;2.55;100.00;98306.88;4971010;28;20701;-70
2021/10/15 03:52:59;;;;;;;7.47;6.80;;;;;;;2.52;100.00;98303.63;4976045;28;20208;-71
2021/10/15 03:55:27;;;;;;;8.43;7.53;;;;;;;2.64;100.00;98301.94;4974346;28;20252;-70
2021/10/15 03:57:56;;;;;;;8.40;7.60;;;;;;;2.58;100.00;98300.56;4973245;28;20296;-71
2021/10/15 04:00:24;;;;;;;8.10;7.40;;;;;;;2.49;100.00;98294.22;4958758;28;21047;-70
2021/10/15 04:02:52;;;;;;;7.90;7.10;;;;;;;2.59;100.00;98291.78;4919988;28;20518;-70
2021/10/15 04:05:23;;;;;;;7.80;6.73;;;;;;;2.60;100.00;98286.47;4971274;28;20246;-72
2021/10/15 04:07:52;;;;;;;7.13;6.47;;;;;;;2.54;100.00;98294.75;4964545;28;20804;-70
2021/10/15 04:10:20;;;;;;;8.00;7.20;;;;;;;2.49;100.00;98294.22;4973085;28;20217;-72
2021/10/15 04:12:48;;;;;;;7.53;6.83;;;;;;;2.44;100.00;98291.91;4973333;28;20214;-65
2021/10/15 04:15:18;;;;;;;9.30;7.50;;;;;;;2.36;100.00;98299.44;4969271;28;20768;-67
2021/10/15 04:17:46;;;;;;;7.70;7.00;;;;;;;2.31;100.00;98291.91;4956942;28;20567;-66
2021/10/15 04:20:14;;;;;;;8.33;7.63;;;;;;;2.28;100.00;98279.03;4922491;28;20812;-66
2021/10/15 04:22:42;;;;;;;7.73;6.93;;;;;;;2.28;100.00;98284.28;4971647;28;20285;-66
2021/10/15 04:25:11;;;;;;;7.70;6.83;;;;;;;2.26;100.00;98282.69;4956133;28;20315;-65
2021/10/15 04:27:39;;;;;;;7.47;6.70;;;;;;;2.27;100.00;98282.59;4972638;28;20202;-68
2021/10/15 04:30:07;;;;;;;8.87;7.67;;;;;;;2.34;100.00;98277.78;4967121;28;20420;-65
2021/10/15 04:32:37;;;;;;;8.13;7.43;;;;;;;2.29;100.00;98274.66;4971788;28;20250;-68
2021/10/15 04:35:06;;;;;;;8.00;7.20;;;;;;;2.29;100.00;98272.88;4969093;28;20724;-66
2021/10/15 04:37:34;;;;;;;7.30;6.53;;;;;;;2.28;100.00;98273.00;4940617;28;20268;-68
2021/10/15 04:40:02;;;;;;;8.73;6.53;;;;;;;2.24;100.00;98261.03;4970547;28;20220;-66
2021/10/15 04:42:31;;;;;;;7.77;7.07;;;;;;;2.33;100.00;98265.66;4973518;28;20483;-68
2021/10/15 04:44:59;;;;;;;9.73;7.80;;;;;;;2.44;100.00;98262.28;4970339;28;20218;-66
2021/10/15 04:47:27;;;;;;;7.77;7.07;;;;;;;2.31;100.00;98265.75;4961867;28;20853;-66
2021/10/15 04:49:57;;;;;;;7.03;6.20;;;;;;;2.25;100.00;98254.84;4964862;28;20332;-67
2021/10/15 04:52:25;;;;;;;8.33;7.20;;;;;;;2.19;100.00;98253.53;4935815;28;20525;-67
2021/10/15 04:54:53;;;;;;;7.53;6.83;;;;;;;2.19;100.00;98253.53;4965713;28;20541;-66
2021/10/15 04:57:25;;;;;;;7.50;6.77;;;;;;;2.15;100.00;98250.25;4969977;28;20407;-68
2021/10/15 04:59:53;;;;;;;7.37;6.30;;;;;;;2.15;100.00;98249.44;4968426;28;20221;-68
2021/10/15 05:02:22;;;;;;;7.03;6.43;;;;;;;2.14;100.00;98263.47;4954917;28;20406;-68
2021/10/15 05:04:50;;;;;;;7.00;6.37;;;;;;;2.09;100.00;98242.84;4973907;28;20222;-66
2021/10/15 05:07:23;;;;;;;7.43;6.73;;;;;;;2.10;100.00;98241.09;4936834;28;20737;-67
2021/10/15 05:09:51;;;;;;;8.50;7.03;;;;;;;2.10;100.00;98235.84;4963809;28;20232;-67
2021/10/15 05:12:19;;;;;;;6.70;6.10;;;;;;;2.07;100.00;98230.81;4965913;28;20578;-68
2021/10/15 05:14:48;;;;;;;7.13;6.43;;;;;;;2.07;100.00;98230.81;4955025;28;21400;-66
2021/10/15 05:17:17;;;;;;;7.37;6.13;;;;;;;2.04;100.00;98234.47;4962819;28;20210;-67
2021/10/15 05:19:45;;;;;;;8.63;7.73;;;;;;;2.09;100.00;98235.00;4966741;28;20217;-66
2021/10/15 05:22:13;;;;;;;7.63;6.83;;;;;;;2.26;100.00;98239.06;4974149;28;20225;-66
2021/10/15 05:24:43;;;;;;;9.07;7.10;;;;;;;2.20;100.00;98233.41;4937178;28;20231;-66
2021/10/15 05:27:11;;;;;;;7.73;6.93;;;;;;;2.11;100.00;98230.50;4972280;28;20659;-67
2021/10/15 05:29:39;;;;;;;7.70;7.00;;;;;;;2.08;100.00;98232.47;4971707;28;20261;-66
2021/10/15 05:32:07;;;;;;;6.93;6.33;;;;;;;2.02;100.00;98233.75;4962283;28;20374;-65
2021/10/15 05:34:35;;;;;;;7.37;6.53;;;;;;;1.96;100.00;98236.78;4972591;28;20466;-65
2021/10/15 05:37:04;;;;;;;7.17;6.57;;;;;;;1.97;100.00;98235.84;4953697;28;20332;-72
2021/10/15 05:39:32;;;;;;;7.73;6.97;;;;;;;1.94;100.00;98238.66;4936735;28;20318;-69
2021/10/15 05:42:02;;;;;;;7.57;6.87;;;;;;;1.98;100.00;98240.13;4956903;28;20491;-70
2021/10/15 05:44:30;;;;;;;8.13;7.43;;;;;;;1.97;100.00;98239.28;4973918;28;20309;-69
2021/10/15 05:46:59;;;;;;;8.07;7.20;;;;;;;1.92;100.00;98246.59;4958547;28;20244;-71
2021/10/15 05:49:27;;;;;;;7.57;6.97;;;;;;;1.88;100.00;98245.13;4972733;28;20314;-71
2021/10/15 05:52:02;;;;;;;7.13;6.53;;;;;;;1.84;100.00;98247.09;4974986;28;20372;-70
2021/10/15 05:54:39;;;;;;;7.70;7.00;;;;;;;1.87;100.00;98249.50;4940687;28;20713;-69
2021/10/15 05:59:59;;;;;;;7.37;6.77;;;;;;;1.85;100.00;98248.78;4920295;28;20402;-69
2021/10/15 06:02:32;;;;;;;8.27;7.20;;;;;;;1.82;100.00;98242.94;4947838;28;20365;-68
2021/10/15 06:16:14;;;;;;;8.23;7.03;;;;;;;1.94;100.00;98238.66;4972973;28;20212;-68
2021/10/15 06:18:51;;;;;;;7.47;6.87;;;;;;;2.01;100.00;98235.50;4963977;28;20806;-71
2021/10/15 06:21:19;;;;;;;8.20;6.87;;;;;;;2.18;100.00;98238.78;4972066;28;20206;-68
2021/10/15 06:23:47;;;;;;;7.40;6.80;;;;;;;2.19;100.00;98234.38;4975708;28;20328;-72
2021/10/15 06:26:15;;;;;;;6.37;5.87;;;;;;;2.24;100.00;98227.88;4941076;28;20353;-71
2021/10/15 06:28:45;;;;;;;7.63;6.87;;;;;;;2.29;100.00;98227.59;4933923;28;20313;-69
2021/10/15 06:31:13;;;;;;;7.30;6.60;;;;;;;2.38;100.00;98229.56;4975522;28;20217;-68
2021/10/15 06:33:41;;;;;;;7.40;6.80;;;;;;;2.50;100.00;98233.09;4976535;28;20206;-68
2021/10/15 06:36:09;;;;;;;8.80;7.20;;;;;;;2.59;100.00;98235.06;4968401;28;20404;-68
2021/10/15 06:38:37;;;;;;;7.97;6.70;;;;;;;2.60;100.00;98244.59;4976995;28;20213;-70
2021/10/15 06:41:06;;;;;;;8.00;7.40;;;;;;;2.65;100.00;98241.66;4961687;28;20312;-72
2021/10/15 06:43:34;;;;;;;7.87;7.07;;;;;;;2.82;100.00;98237.81;4939694;28;20715;-68
2021/10/15 06:46:04;;;;;;;9.40;7.97;;;;;;;2.85;100.00;98235.03;4969846;28;20225;-70
2021/10/15 06:48:32;;;;;;;8.63;7.67;;;;;;;2.96;100.00;98247.31;4976171;28;20239;-71
2021/10/15 06:51:00;;;;;;;9.40;8.53;;;;;;;3.02;100.00;98239.03;4973399;28;20227;-68
2021/10/15 06:53:28;;;;;;;9.40;8.50;;;;;;;3.02;100.00;98246.88;4976063;28;20221;-69
2021/10/15 06:55:57;;;;;;;9.53;8.63;;;;;;;3.12;100.00;98235.75;4963234;28;20649;-69
2021/10/15 06:58:25;;;;;;;10.10;9.17;;;;;;;3.25;100.00;98243.56;4943448;28;20226;-72
2021/10/15 07:00:53;;;;;;;9.80;8.77;;;;;;;3.32;100.00;98245.63;4969844;28;20742;-69
2021/10/15 07:03:23;;;;;;;8.70;7.80;;;;;;;3.58;100.00;98249.88;4972783;28;20506;-72
2021/10/15 07:05:51;;;;;;;9.07;8.27;;;;;;;3.76;100.00;98240.69;4973086;28;20225;-68
2021/10/15 07:08:19;;;;;;;10.30;9.30;;;;;;;3.92;100.00;98250.00;4975591;28;20555;-71
2021/10/15 07:10:47;;;;;;;10.07;9.07;;;;;;;4.09;100.00;98243.47;4974116;28;20217;-69
2021/10/15 07:13:16;;;;;;;10.37;9.27;;;;;;;4.33;100.00;98246.00;4962166;28;20214;-71
2021/10/15 07:15:50;;;;;;;10.83;9.73;;;;;;;4.58;100.00;98244.13;4938031;28;20233;-69
2021/10/15 07:18:18;;;;;;;10.83;9.30;;;;;;;4.72;100.00;98232.53;4974869;28;20232;-68
2021/10/15 07:20:48;;;;;;;9.87;8.93;;;;;;;4.86;100.00;98234.09;4972619;28;20206;-68
2021/10/15 07:23:23;;;;;;;10.83;9.13;;;;;;;5.07;100.00;98236.78;4973400;28;21029;-70
2021/10/15 07:25:51;;;;;;;10.83;8.57;;;;;;;5.29;100.00;98228.97;4975603;28;20587;-68
2021/10/15 07:28:19;;;;;;;10.83;9.77;;;;;;;5.46;100.00;98238.91;4958750;28;20235;-71
2021/10/15 07:30:48;;;;;;;9.87;8.23;;;;;;;5.46;100.00;98238.09;4934644;28;20717;-69
2021/10/15 07:33:18;;;;;;;10.70;9.60;;;;;;;5.71;100.00;98242.16;4970379;28;20308;-72
2021/10/15 07:35:49;;;;;;;12.23;9.90;;;;;;;5.72;100.00;98238.59;4968442;28;20245;-69
2021/10/15 07:38:17;;;;;;;10.33;9.00;;;;;;;5.90;100.00;98243.28;4973966;28;20210;-70
2021/10/15 07:40:46;;;;;;;9.83;8.83;;;;;;;5.99;100.00;98239.03;4968357;28;20664;-69
2021/10/15 07:43:15;;;;;;;9.20;8.37;;;;;;;6.03;100.00;98240.47;4962402;28;21112;-69
2021/10/15 07:45:43;;;;;;;10.47;9.13;;;;;;;6.02;100.00;98246.69;4936691;28;20614;-69
2021/10/15 07:48:11;;;;;;;10.10;9.10;;;;;;;6.11;100.00;98250.34;4972291;28;20462;-71
2021/10/15 07:50:40;;;;;;;9.87;8.70;;;;;;;6.04;100.00;98244.78;4975671;28;20319;-73
2021/10/15 07:53:10;;;;;;;10.23;7.90;;;;;;;6.12;100.00;98249.41;4971523;28;20754;-71
2021/10/15 07:55:38;;;;;;;8.73;7.93;;;;;;;6.30;100.00;98247.84;4975562;28;20233;-70
2021/10/15 07:58:47;;;;;;;10.50;8.17;;;;;;;6.46;100.00;98246.53;4972719;28;20380;-70
2021/10/15 08:01:15;;;;;;;9.37;8.47;;;;;;;6.54;100.00;98244.06;4933257;28;20225;-75
2021/10/15 08:03:43;;;;;;;9.77;8.47;;;;;;;6.59;100.00;98244.50;4971004;28;20641;-69
2021/10/15 08:06:11;;;;;;;9.33;8.07;;;;;;;6.72;100.00;98241.63;4969500;28;20762;-71
2021/10/15 08:08:41;;;;;;;8.37;7.57;;;;;;;6.71;100.00;98241.78;4975376;28;20292;-70
2021/10/15 08:11:11;;;;;;;10.80;8.33;;;;;;;7.10;100.00;98250.63;4972503;28;20225;-71
2021/10/15 08:13:39;;;;;;;9.03;8.20;;;;;;;7.04;100.00;98245.09;4971887;28;20286;-72
2021/10/15 08:16:07;;;;;;;11.50;7.30;;;;;;;7.19;100.00;98248.13;4922590;28;20765;-74
2021/10/15 08:18:35;;;;;;;7.07;6.47;;;;;;;7.31;100.00;98248.84;4974275;28;20292;-70
2021/10/15 08:21:04;;;;;;;8.13;7.33;;;;;;;7.46;100.00;98250.13;4968564;28;20411;-73
2021/10/15 08:23:32;;;;;;;8.53;7.20;;;;;;;7.58;100.00;98245.56;4970672;28;20217;-72
2021/10/15 08:26:01;;;;;;;8.97;7.23;;;;;;;7.74;100.00;98247.63;4967695;28;20237;-71
2021/10/15 08:28:33;;;;;;;7.50;6.70;;;;;;;7.79;100.00;98252.50;4963464;28;20312;-70
2021/10/15 08:31:11;;;;;;;7.47;6.80;;;;;;;7.97;100.00;98242.06;4932394;28;21179;-70
2021/10/15 08:33:40;;;;;;;7.30;6.67;;;;;;;8.08;100.00;98247.16;4964659;28;20211;-72
2021/10/15 08:36:09;;;;;;;7.23;6.63;;;;;;;7.96;100.00;98249.16;4979184;28;20216;-70
2021/10/15 08:38:37;;;;;;;6.90;6.20;;;;;;;8.02;100.00;98247.75;4934453;28;20245;-71
2021/10/15 08:41:06;;;;;;;7.03;6.43;;;;;;;8.10;100.00;98253.13;4970168;28;20694;-69
2021/10/15 08:43:36;;;;;;;7.07;6.47;;;;;;;8.35;100.00;98242.94;4967302;28;20422;-69
2021/10/15 08:46:04;;;;;;;7.27;6.70;;;;;;;8.56;100.00;98243.75;4970440;28;20213;-68
2021/10/15 08:48:38;;;;;;;7.10;6.23;;;;;;;8.64;100.00;98243.84;4968738;28;20229;-69
2021/10/15 08:51:07;;;;;;;5.97;5.43;;;;;;;8.60;100.00;98240.69;4972281;28;20240;-68
2021/10/15 08:53:45;;;;;;;6.67;5.93;;;;;;;8.77;100.00;98232.94;4934796;28;20442;-71
2021/10/15 08:56:17;;;;;;;7.13;6.40;;;;;;;9.04;100.00;98234.72;4970922;28;20213;-69
2021/10/15 08:58:47;;;;;;;6.37;5.87;;;;;;;9.12;100.00;98228.72;4974399;28;20324;-72
2021/10/15 09:01:15;;;;;;;7.30;6.70;;;;;;;9.20;100.00;98226.16;4970251;28;20301;-70
2021/10/15 09:03:44;;;;;;;6.50;5.50;;;;;;;9.30;100.00;98225.28;4974204;28;20300;-67
2021/10/15 09:06:13;;;;;;;7.80;6.50;;;;;;;9.59;100.00;98219.75;4971088;28;20681;-67
2021/10/15 09:08:47;;;;;;;6.40;5.90;;;;;;;9.60;100.00;98225.84;4937784;28;20226;-70
2021/10/15 09:11:30;;;;;;;7.67;6.17;;;;;;;9.94;100.00;98219.84;4970196;28;20237;-68
2021/10/15 09:14:14;;;;;;;6.90;6.30;;;;;;;10.07;100.00;98212.34;4971198;28;20316;-70
2021/10/15 09:17:00;;;;;;;6.50;5.93;;;;;;;10.27;100.00;98205.03;4971081;28;20217;-72
2021/10/15 09:19:30;;;;;;;6.70;6.00;;;;;;;10.25;100.00;98200.84;4970122;28;20919;-69
2021/10/15 09:22:09;;;;;;;5.33;4.93;;;;;;;10.39;100.00;98202.91;4971159;28;20213;-68
2021/10/15 09:24:39;;;;;;;4.90;4.50;;;;;;;10.29;100.00;98199.56;4933327;28;20663;-71
2021/10/15 09:27:38;;;;;;;5.47;4.97;;;;;;;10.34;100.00;98193.78;4973684;28;20236;-70
2021/10/15 09:30:09;;;;;;;4.23;3.93;;;;;;;10.32;100.00;98196.59;4974161;28;20214;-66
2021/10/15 09:32:39;;;;;;;4.40;4.00;;;;;;;10.47;100.00;98193.41;4968297;28;20514;-69
2021/10/15 09:35:09;;;;;;;4.90;4.47;;;;;;;10.59;100.00;98189.47;4972007;28;20313;-70
2021/10/15 09:37:39;;;;;;;4.97;4.57;;;;;;;10.66;100.00;98182.53;4971960;28;20277;-70
2021/10/15 09:40:10;;;;;;;4.90;4.40;;;;;;;10.76;100.00;98186.88;4940890;28;20668;-70
2021/10/15 09:42:41;;;;;;;4.70;4.40;;;;;;;10.91;100.00;98187.09;4974269;28;20863;-72
2021/10/15 09:45:15;;;;;;;4.87;4.43;;;;;;;11.03;100.00;98183.16;4974948;28;20225;-69
2021/10/15 09:47:45;;;;;;;4.50;4.20;;;;;;;11.17;100.00;98192.28;4977899;28;20201;-69
2021/10/15 09:50:16;;;;;;;4.47;4.10;;;;;;;11.28;100.00;98186.69;4976329;28;20212;-70
2021/10/15 09:52:45;;;;;;;4.30;3.90;;;;;;;11.58;100.00;98186.19;4976010;28;20209;-71
2021/10/15 09:55:19;;;;;;;4.20;3.80;;;;;;;11.64;100.00;98190.84;4940809;28;20241;-69
2021/10/15 09:57:50;;;;;;;5.00;4.13;;;;;;;11.78;100.00;98193.84;4974576;28;20229;-70
2021/10/15 10:00:19;;;;;;;4.57;4.27;;;;;;;11.77;100.00;98184.22;4973147;28;20248;-69
2021/10/15 10:02:47;;;;;;;4.60;4.20;;;;;;;12.05;100.00;98191.81;4977808;28;20221;-72
2021/10/15 10:05:17;;;;;;;4.23;3.93;;;;;;;11.81;100.00;98185.53;4973175;28;20535;-69
2021/10/15 10:07:47;;;;;;;4.27;3.97;;;;;;;11.85;100.00;98186.84;4978850;28;20253;-72
2021/10/15 10:10:17;;;;;;;5.30;4.80;;;;;;;12.04;100.00;98188.34;4950212;28;20216;-69
2021/10/15 10:12:46;;;;;;;4.43;4.07;;;;;;;12.28;100.00;98186.63;4973652;28;20562;-72
2021/10/15 10:15:17;;;;;;;5.30;4.50;;;;;;;12.45;100.00;98187.41;4971956;28;20225;-70
2021/10/15 10:17:51;;;;;;;4.50;4.10;;;;;;;12.51;100.00;98184.09;4974226;28;20385;-72
2021/10/15 10:20:26;;;;;;;5.20;4.80;;;;;;;12.40;100.00;98187.94;4970952;28;20201;-69
2021/10/15 10:23:08;;;;;;;4.40;4.10;;;;;;;12.49;100.00;98186.06;4977129;28;20244;-72
2021/10/15 10:25:37;;;;;;;4.50;4.10;;;;;;;12.57;100.00;98187.88;4939355;28;20758;-71
2021/10/15 10:28:14;;;;;;;4.80;4.27;;;;;;;12.47;100.00;98181.94;4973374;28;20217;-69
2021/10/15 10:30:45;;;;;;;4.27;3.97;;;;;;;12.37;100.00;98180.31;4970334;28;20202;-72
2021/10/15 10:33:14;;;;;;;3.97;3.63;;;;;;;12.58;100.00;98178.91;4970940;28;20227;-70
2021/10/15 10:35:43;;;;;;;4.43;4.03;;;;;;;12.63;100.00;98176.53;4972970;28;20300;-71
2021/10/15 10:38:30;;;;;;;4.13;3.83;;;;;;;12.43;100.00;98176.13;4970960;28;20323;-69
2021/10/15 10:41:20;;;;;;;4.10;3.70;;;;;;;12.46;100.00;98173.13;4973956;28;20289;-73
2021/10/15 10:44:12;;;;;;;4.40;4.03;;;;;;;12.77;100.00;98176.84;4973886;28;20236;-71
2021/10/15 10:46:42;;;;;;;4.13;3.83;;;;;;;12.89;100.00;98175.44;4936238;28;20582;-74
2021/10/15 10:49:21;;;;;;;4.73;4.00;;;;;;;13.26;100.00;98173.06;4968609;28;20362;-73
2021/10/15 10:52:18;;;;;;;4.07;3.80;;;;;;;13.53;100.00;98169.06;4976842;28;20243;-71
2021/10/15 10:54:48;;;;;;;4.00;3.60;;;;;;;13.68;100.00;98161.13;4964529;28;20229;-70
2021/10/15 10:57:24;;;;;;;4.33;4.03;;;;;;;13.43;100.00;98152.50;4973864;28;20216;-73
2021/10/15 10:59:53;;;;;;;4.53;4.20;;;;;;;13.58;100.00;98155.19;4967202;28;20342;-71
2021/10/15 11:02:23;;;;;;;4.53;4.00;;;;;;;12.97;100.00;98153.28;4953082;28;20593;-72
2021/10/15 11:04:56;;;;;;;4.00;3.60;;;;;;;13.24;100.00;98151.94;4974693;28;20229;-70
2021/10/15 11:07:26;;;;;;;3.87;3.57;;;;;;;13.38;100.00;98154.81;4973736;28;20375;-69
2021/10/15 11:09:56;;;;;;;3.90;3.53;;;;;;;13.54;100.00;98149.44;4969468;28;20241;-69
2021/10/15 11:12:57;;;;;;;3.87;3.67;;;;;;;13.48;100.00;98139.50;4964728;28;20261;-73
2021/10/15 11:15:28;;;;;;;3.43;3.23;;;;;;;13.53;100.00;98144.25;4968480;28;20243;-71
2021/10/15 11:17:58;;;;;;;4.63;4.07;;;;;;;13.70;100.00;98144.94;4939413;28;20632;-69
2021/10/15 11:20:29;;;;;;;4.33;4.03;;;;;;;13.82;100.00;98135.50;4974508;28;20410;-70
2021/10/15 11:22:59;;;;;;;3.90;3.60;;;;;;;14.11;100.00;98133.06;4970464;28;20224;-71
2021/10/15 11:25:29;;;;;;;4.60;3.53;;;;;;;14.12;100.00;98135.53;4961688;28;20237;-71
2021/10/15 11:27:59;;;;;;;4.03;3.73;;;;;;;14.27;100.00;98129.41;4973452;28;20205;-70
2021/10/15 11:30:30;;;;;;;3.30;3.10;;;;;;;14.54;93.55;98121.72;4973570;28;20518;-72
2021/10/15 11:33:00;;;;;;;3.47;3.23;;;;;;;14.14;97.05;98122.03;4939387;28;20257;-70
2021/10/15 11:35:32;;;;;;;3.53;3.33;;;;;;;14.41;94.73;98123.22;4974645;28;20568;-74
2021/10/15 11:38:03;;;;;;;3.43;3.13;;;;;;;14.62;96.48;98121.63;4971624;28;20214;-74
2021/10/15 11:40:34;;;;;;;3.20;3.00;;;;;;;15.18;86.40;98121.03;4964544;28;20202;-75
2021/10/15 11:43:15;;;;;;;2.80;2.70;;;;;;;14.92;86.88;98124.25;4972122;28;20210;-73
2021/10/15 11:45:45;;;;;;;3.27;3.03;;;;;;;14.76;88.76;98118.13;4959142;28;20258;-74
2021/10/15 11:48:17;;;;;;;3.20;3.00;;;;;;;15.17;84.82;98121.22;4939307;28;20434;-76
2021/10/15 11:50:53;;;;;;;3.73;2.90;;;;;;;15.33;81.58;98114.81;4966567;28;20795;-74
2021/10/15 11:53:24;;;;;;;3.00;2.80;;;;;;;15.09;79.26;98116.81;4974072;28;20229;-75
2021/10/15 11:55:53;;;;;;;3.10;2.90;;;;;;;15.41;81.37;98111.19;4969377;28;20791;-74
2021/10/15 11:58:40;;;;;;;2.93;2.67;;;;;;;15.09;80.78;98122.16;4956869;28;20213;-73